Maple Valley, WA

3:02 AM PST on February 11, 2016 (GMT -0800)
W7GPL | | Change Station
CLOSE
Current Station
Personal Weather Station
Location: Maple Valley, WA
Elevation: 630 ft
Nearby Weather Stations

Elev 630 ft 47.40 °N, 122.01 °W | Updated 16 seconds ago

Mostly Cloudy
Mostly Cloudy
44.3 °F
Feels Like 44 °F
N
0.0
Wind Variable Wind from NNE
Gusts 0.0 mph

Today
High -- | Low -- °F
--% Chance of Precip.
Yesterday
High -- | Low -- °F
Precip. -- in
Pressure 30.25 in
Visibility 5.0 miles
Clouds Mostly Cloudy 300 ft
Windchill 44 °F
Dew Point 44 °F
Humidity 98%
Rainfall 0.00 in
Snow Depth Not available.
7:20 AM 5:25 PM
Waxing Crescent, 11% visible
METAR KRNT 111053Z AUTO 00000KT 5SM BR BKN003 08/07 A3023 RMK AO2 SLP243 T00780067
Pressure 30.25 in
Visibility 5.0 miles
Clouds Mostly Cloudy 300 ft
Windchill 44 °F
Dew Point 44 °F
Humidity 98%
Rainfall 0.00 in
Snow Depth Not available.
7:20 AM 5:25 PM
Waxing Crescent, 11% visible
METAR KRNT 111053Z AUTO 00000KT 5SM BR BKN003 08/07 A3023 RMK AO2 SLP243 T00780067

10-Day Weather Forecast

Almanac

Astronomy

Feb. 11, 2016 Rise Set
Actual Time
Civil Twilight
Nautical Twilight
Astronomical Twilight
Moon
Length of Visible Light
Length of Day
Tomorrow will be .
, % of the Moon is Illuminated

Today's Extremes

State Highs State Lows

Community

WunderPhotos

Upload Photos

1,892,030 photos uploaded!

WunderBlog® & News

Nearby

Air Quality

  Air Quality AQ Index Pollutant
Not available.

Snow Depth

Station Depth Elevation

Earthquake Activity

City Distance Mag. Time & Date
Minimum magnitude displayed is 2.5.

Coastal Water Temperatures

Place Temperature

Stations

Nearby Weather Stations

Station Location Temp. Windchill Dew Point Humidity Wind Precip. Elev Updated Type
                   

Watches & Warnings

There are currently no watches in effect.